sensor_id;sensor_type;location;lat;lon;timestamp;temperature;humidity
66506;HTU21D;53332;51.082;5.832;2022-07-15T00:02:24;15.49;80.04
66506;HTU21D;53332;51.082;5.832;2022-07-15T00:04:50;15.48;80.20
66506;HTU21D;53332;51.082;5.832;2022-07-15T00:07:15;15.46;80.24
66506;HTU21D;53332;51.082;5.832;2022-07-15T00:09:41;15.48;80.43
66506;HTU21D;53332;51.082;5.832;2022-07-15T00:12:25;15.54;80.49
66506;HTU21D;53332;51.082;5.832;2022-07-15T00:14:51;15.59;80.31
66506;HTU21D;53332;51.082;5.832;2022-07-15T00:17:16;15.63;80.19
66506;HTU21D;53332;51.082;5.832;2022-07-15T00:19:42;15.69;80.10
66506;HTU21D;53332;51.082;5.832;2022-07-15T00:22:08;15.76;79.77
66506;HTU21D;53332;51.082;5.832;2022-07-15T00:24:34;15.82;79.66
66506;HTU21D;53332;51.082;5.832;2022-07-15T00:26:59;15.81;79.50
66506;HTU21D;53332;51.082;5.832;2022-07-15T00:29:27;15.83;79.41
66506;HTU21D;53332;51.082;5.832;2022-07-15T00:31:53;15.85;79.38
66506;HTU21D;53332;51.082;5.832;2022-07-15T00:34:18;15.85;79.31
66506;HTU21D;53332;51.082;5.832;2022-07-15T00:36:44;15.90;79.46
66506;HTU21D;53332;51.082;5.832;2022-07-15T00:39:10;15.98;79.35
66506;HTU21D;53332;51.082;5.832;2022-07-15T00:41:37;16.00;79.34
66506;HTU21D;53332;51.082;5.832;2022-07-15T00:44:03;16.05;79.12
66506;HTU21D;53332;51.082;5.832;2022-07-15T00:46:30;16.06;78.80
66506;HTU21D;53332;51.082;5.832;2022-07-15T00:48:57;16.06;78.60
66506;HTU21D;53332;51.082;5.832;2022-07-15T00:51:22;16.06;78.58
66506;HTU21D;53332;51.082;5.832;2022-07-15T00:53:48;16.05;78.66
66506;HTU21D;53332;51.082;5.832;2022-07-15T00:56:15;16.04;78.53
66506;HTU21D;53332;51.082;5.832;2022-07-15T00:58:43;16.02;78.41
66506;HTU21D;53332;51.082;5.832;2022-07-15T01:01:10;15.98;78.58
66506;HTU21D;53332;51.082;5.832;2022-07-15T01:03:37;15.97;78.57
66506;HTU21D;53332;51.082;5.832;2022-07-15T01:06:03;15.98;78.28
66506;HTU21D;53332;51.082;5.832;2022-07-15T01:08:29;15.93;78.56
66506;HTU21D;53332;51.082;5.832;2022-07-15T01:10:54;15.92;78.79
66506;HTU21D;53332;51.082;5.832;2022-07-15T01:13:21;15.88;78.82
66506;HTU21D;53332;51.082;5.832;2022-07-15T01:15:48;15.87;78.88
66506;HTU21D;53332;51.082;5.832;2022-07-15T01:18:15;15.88;78.95
66506;HTU21D;53332;51.082;5.832;2022-07-15T01:20:42;15.87;79.06
66506;HTU21D;53332;51.082;5.832;2022-07-15T01:23:09;15.86;79.13
66506;HTU21D;53332;51.082;5.832;2022-07-15T01:25:34;15.84;79.09
66506;HTU21D;53332;51.082;5.832;2022-07-15T01:28:00;15.76;79.22
66506;HTU21D;53332;51.082;5.832;2022-07-15T01:30:26;15.71;79.34
66506;HTU21D;53332;51.082;5.832;2022-07-15T01:32:52;15.60;79.36
66506;HTU21D;53332;51.082;5.832;2022-07-15T01:35:18;15.48;79.72
66506;HTU21D;53332;51.082;5.832;2022-07-15T01:37:44;15.39;79.95
66506;HTU21D;53332;51.082;5.832;2022-07-15T01:40:11;15.29;80.36
66506;HTU21D;53332;51.082;5.832;2022-07-15T01:42:37;15.23;80.68
66506;HTU21D;53332;51.082;5.832;2022-07-15T01:45:07;15.16;80.87
66506;HTU21D;53332;51.082;5.832;2022-07-15T01:47:40;15.07;80.98
66506;HTU21D;53332;51.082;5.832;2022-07-15T01:50:06;14.96;81.12
66506;HTU21D;53332;51.082;5.832;2022-07-15T01:52:32;14.89;81.43
66506;HTU21D;53332;51.082;5.832;2022-07-15T01:54:57;14.82;81.65
66506;HTU21D;53332;51.082;5.832;2022-07-15T01:57:23;14.73;81.59
66506;HTU21D;53332;51.082;5.832;2022-07-15T01:59:48;14.66;81.75
66506;HTU21D;53332;51.082;5.832;2022-07-15T02:02:15;14.58;82.07
66506;HTU21D;53332;51.082;5.832;2022-07-15T02:04:40;14.50;82.11
66506;HTU21D;53332;51.082;5.832;2022-07-15T02:07:06;14.41;82.33
66506;HTU21D;53332;51.082;5.832;2022-07-15T02:09:33;14.33;82.43
66506;HTU21D;53332;51.082;5.832;2022-07-15T02:11:58;14.25;82.58
66506;HTU21D;53332;51.082;5.832;2022-07-15T02:14:24;14.17;82.84
66506;HTU21D;53332;51.082;5.832;2022-07-15T02:16:50;14.10;83.07
66506;HTU21D;53332;51.082;5.832;2022-07-15T02:19:15;14.04;83.35
66506;HTU21D;53332;51.082;5.832;2022-07-15T02:21:41;14.03;83.78
66506;HTU21D;53332;51.082;5.832;2022-07-15T02:24:07;13.97;84.24
66506;HTU21D;53332;51.082;5.832;2022-07-15T02:26:33;13.92;84.52
66506;HTU21D;53332;51.082;5.832;2022-07-15T02:28:59;13.89;84.64
66506;HTU21D;53332;51.082;5.832;2022-07-15T02:31:24;13.85;84.62
66506;HTU21D;53332;51.082;5.832;2022-07-15T02:33:50;13.79;84.58
66506;HTU21D;53332;51.082;5.832;2022-07-15T02:36:16;13.76;84.53
66506;HTU21D;53332;51.082;5.832;2022-07-15T02:38:41;13.71;84.84
66506;HTU21D;53332;51.082;5.832;2022-07-15T02:41:08;13.69;85.34
66506;HTU21D;53332;51.082;5.832;2022-07-15T02:43:34;13.66;85.80
66506;HTU21D;53332;51.082;5.832;2022-07-15T02:46:02;13.64;86.09
66506;HTU21D;53332;51.082;5.832;2022-07-15T02:48:28;13.63;86.24
66506;HTU21D;53332;51.082;5.832;2022-07-15T02:50:53;13.59;86.44
66506;HTU21D;53332;51.082;5.832;2022-07-15T02:53:19;13.55;86.57
66506;HTU21D;53332;51.082;5.832;2022-07-15T02:55:47;13.52;86.50
66506;HTU21D;53332;51.082;5.832;2022-07-15T02:58:13;13.52;86.40
66506;HTU21D;53332;51.082;5.832;2022-07-15T03:00:39;13.48;86.20
66506;HTU21D;53332;51.082;5.832;2022-07-15T03:03:04;13.45;86.02
66506;HTU21D;53332;51.082;5.832;2022-07-15T03:05:30;13.43;86.03
66506;HTU21D;53332;51.082;5.832;2022-07-15T03:07:56;13.40;86.25
66506;HTU21D;53332;51.082;5.832;2022-07-15T03:10:22;13.40;86.50
66506;HTU21D;53332;51.082;5.832;2022-07-15T03:12:48;13.40;86.55
66506;HTU21D;53332;51.082;5.832;2022-07-15T03:15:13;13.40;86.59
66506;HTU21D;53332;51.082;5.832;2022-07-15T03:17:39;13.39;86.62
66506;HTU21D;53332;51.082;5.832;2022-07-15T03:20:09;13.39;86.61
66506;HTU21D;53332;51.082;5.832;2022-07-15T03:22:35;13.37;86.61
66506;HTU21D;53332;51.082;5.832;2022-07-15T03:25:01;13.36;86.58
66506;HTU21D;53332;51.082;5.832;2022-07-15T03:27:26;13.35;86.58
66506;HTU21D;53332;51.082;5.832;2022-07-15T03:29:52;13.34;86.45
66506;HTU21D;53332;51.082;5.832;2022-07-15T03:32:18;13.32;86.50
66506;HTU21D;53332;51.082;5.832;2022-07-15T03:34:46;13.33;86.58
66506;HTU21D;53332;51.082;5.832;2022-07-15T03:37:12;13.32;86.66
66506;HTU21D;53332;51.082;5.832;2022-07-15T03:39:38;13.33;86.80
66506;HTU21D;53332;51.082;5.832;2022-07-15T03:42:03;13.33;86.81
66506;HTU21D;53332;51.082;5.832;2022-07-15T03:44:29;13.34;86.96
66506;HTU21D;53332;51.082;5.832;2022-07-15T03:46:55;13.34;87.00
66506;HTU21D;53332;51.082;5.832;2022-07-15T03:49:21;13.35;86.98
66506;HTU21D;53332;51.082;5.832;2022-07-15T03:51:46;13.36;87.03
66506;HTU21D;53332;51.082;5.832;2022-07-15T03:54:12;13.37;86.99
66506;HTU21D;53332;51.082;5.832;2022-07-15T03:56:37;13.38;86.93
66506;HTU21D;53332;51.082;5.832;2022-07-15T03:59:04;13.39;87.03
66506;HTU21D;53332;51.082;5.832;2022-07-15T04:01:29;13.43;86.96
66506;HTU21D;53332;51.082;5.832;2022-07-15T04:03:55;13.50;87.00
66506;HTU21D;53332;51.082;5.832;2022-07-15T04:06:21;13.58;86.90
66506;HTU21D;53332;51.082;5.832;2022-07-15T04:08:47;13.67;86.80
66506;HTU21D;53332;51.082;5.832;2022-07-15T04:11:14;13.79;86.54
66506;HTU21D;53332;51.082;5.832;2022-07-15T04:13:40;13.95;86.54
66506;HTU21D;53332;51.082;5.832;2022-07-15T04:16:07;14.09;86.00
66506;HTU21D;53332;51.082;5.832;2022-07-15T04:18:33;14.24;85.76
66506;HTU21D;53332;51.082;5.832;2022-07-15T04:20:59;14.48;85.73
66506;HTU21D;53332;51.082;5.832;2022-07-15T04:23:25;14.68;83.60
66506;HTU21D;53332;51.082;5.832;2022-07-15T04:25:51;14.70;82.24
66506;HTU21D;53332;51.082;5.832;2022-07-15T04:28:25;14.69;81.88
66506;HTU21D;53332;51.082;5.832;2022-07-15T04:30:51;14.71;81.76
66506;HTU21D;53332;51.082;5.832;2022-07-15T04:33:17;14.74;81.72
66506;HTU21D;53332;51.082;5.832;2022-07-15T04:35:43;14.78;81.72
66506;HTU21D;53332;51.082;5.832;2022-07-15T04:38:09;14.85;81.39
66506;HTU21D;53332;51.082;5.832;2022-07-15T04:40:35;14.88;81.27
66506;HTU21D;53332;51.082;5.832;2022-07-15T04:43:01;14.92;81.16
66506;HTU21D;53332;51.082;5.832;2022-07-15T04:45:28;14.93;80.69
66506;HTU21D;53332;51.082;5.832;2022-07-15T04:47:53;14.92;80.26
66506;HTU21D;53332;51.082;5.832;2022-07-15T04:50:19;14.88;80.39
66506;HTU21D;53332;51.082;5.832;2022-07-15T04:53:03;14.89;80.49
66506;HTU21D;53332;51.082;5.832;2022-07-15T04:55:30;14.97;80.58
66506;HTU21D;53332;51.082;5.832;2022-07-15T04:57:56;15.04;80.67
66506;HTU21D;53332;51.082;5.832;2022-07-15T05:00:22;15.15;80.17
66506;HTU21D;53332;51.082;5.832;2022-07-15T05:02:47;15.23;79.89
66506;HTU21D;53332;51.082;5.832;2022-07-15T05:05:13;15.31;79.65
66506;HTU21D;53332;51.082;5.832;2022-07-15T05:07:38;15.37;79.32
66506;HTU21D;53332;51.082;5.832;2022-07-15T05:10:05;15.42;78.98
66506;HTU21D;53332;51.082;5.832;2022-07-15T05:12:31;15.42;79.19
66506;HTU21D;53332;51.082;5.832;2022-07-15T05:14:57;15.45;79.30
66506;HTU21D;53332;51.082;5.832;2022-07-15T05:17:22;15.48;79.41
66506;HTU21D;53332;51.082;5.832;2022-07-15T05:19:48;15.51;79.58
66506;HTU21D;53332;51.082;5.832;2022-07-15T05:22:14;15.55;79.61
66506;HTU21D;53332;51.082;5.832;2022-07-15T05:24:42;15.58;79.57
66506;HTU21D;53332;51.082;5.832;2022-07-15T05:27:07;15.61;79.46
66506;HTU21D;53332;51.082;5.832;2022-07-15T05:29:33;15.65;79.66
66506;HTU21D;53332;51.082;5.832;2022-07-15T05:31:58;15.66;79.45
66506;HTU21D;53332;51.082;5.832;2022-07-15T05:34:24;15.66;79.24
66506;HTU21D;53332;51.082;5.832;2022-07-15T05:36:50;15.66;79.70
66506;HTU21D;53332;51.082;5.832;2022-07-15T05:39:15;15.68;79.50
66506;HTU21D;53332;51.082;5.832;2022-07-15T05:41:41;15.81;80.74
66506;HTU21D;53332;51.082;5.832;2022-07-15T05:44:06;16.10;81.32
66506;HTU21D;53332;51.082;5.832;2022-07-15T05:46:32;16.48;80.36
66506;HTU21D;53332;51.082;5.832;2022-07-15T05:48:58;16.89;79.46
66506;HTU21D;53332;51.082;5.832;2022-07-15T05:51:23;17.31;77.44
66506;HTU21D;53332;51.082;5.832;2022-07-15T05:53:49;17.65;75.91
66506;HTU21D;53332;51.082;5.832;2022-07-15T05:56:15;18.06;74.68
66506;HTU21D;53332;51.082;5.832;2022-07-15T05:58:40;18.43;72.39
66506;HTU21D;53332;51.082;5.832;2022-07-15T06:01:06;18.71;71.13
66506;HTU21D;53332;51.082;5.832;2022-07-15T06:03:31;18.96;69.35
66506;HTU21D;53332;51.082;5.832;2022-07-15T06:05:58;19.18;68.57
66506;HTU21D;53332;51.082;5.832;2022-07-15T06:08:23;19.27;67.19
66506;HTU21D;53332;51.082;5.832;2022-07-15T06:10:49;19.36;66.96
66506;HTU21D;53332;51.082;5.832;2022-07-15T06:13:14;19.56;65.82
66506;HTU21D;53332;51.082;5.832;2022-07-15T06:15:40;19.58;64.76
66506;HTU21D;53332;51.082;5.832;2022-07-15T06:18:06;19.61;64.10
66506;HTU21D;53332;51.082;5.832;2022-07-15T06:20:32;19.71;64.41
66506;HTU21D;53332;51.082;5.832;2022-07-15T06:22:58;19.94;63.53
66506;HTU21D;53332;51.082;5.832;2022-07-15T06:25:23;20.03;62.33
66506;HTU21D;53332;51.082;5.832;2022-07-15T06:27:49;20.01;61.79
66506;HTU21D;53332;51.082;5.832;2022-07-15T06:30:15;20.03;61.59
66506;HTU21D;53332;51.082;5.832;2022-07-15T06:32:40;19.98;61.26
66506;HTU21D;53332;51.082;5.832;2022-07-15T06:35:07;19.87;61.05
66506;HTU21D;53332;51.082;5.832;2022-07-15T06:37:33;19.88;61.12
66506;HTU21D;53332;51.082;5.832;2022-07-15T06:39:58;19.99;60.89
66506;HTU21D;53332;51.082;5.832;2022-07-15T06:42:24;20.07;60.70
66506;HTU21D;53332;51.082;5.832;2022-07-15T06:44:50;20.24;60.57
66506;HTU21D;53332;51.082;5.832;2022-07-15T06:47:16;20.37;60.20
66506;HTU21D;53332;51.082;5.832;2022-07-15T06:49:41;20.49;59.53
66506;HTU21D;53332;51.082;5.832;2022-07-15T06:52:07;20.60;58.83
66506;HTU21D;53332;51.082;5.832;2022-07-15T06:54:33;20.65;58.85
66506;HTU21D;53332;51.082;5.832;2022-07-15T06:56:59;20.79;58.55
66506;HTU21D;53332;51.082;5.832;2022-07-15T06:59:25;20.78;57.77
66506;HTU21D;53332;51.082;5.832;2022-07-15T07:01:51;20.69;57.88
66506;HTU21D;53332;51.082;5.832;2022-07-15T07:04:17;20.70;58.16
66506;HTU21D;53332;51.082;5.832;2022-07-15T07:06:44;20.62;57.73
66506;HTU21D;53332;51.082;5.832;2022-07-15T07:09:10;20.62;57.80
66506;HTU21D;53332;51.082;5.832;2022-07-15T07:11:36;20.58;57.30
66506;HTU21D;53332;51.082;5.832;2022-07-15T07:14:02;20.46;57.37
66506;HTU21D;53332;51.082;5.832;2022-07-15T07:16:28;20.45;57.29
66506;HTU21D;53332;51.082;5.832;2022-07-15T07:18:54;20.50;57.22
66506;HTU21D;53332;51.082;5.832;2022-07-15T07:21:19;20.54;56.24
66506;HTU21D;53332;51.082;5.832;2022-07-15T07:23:46;20.44;56.44
66506;HTU21D;53332;51.082;5.832;2022-07-15T07:26:13;20.39;57.16
66506;HTU21D;53332;51.082;5.832;2022-07-15T07:28:40;20.53;56.66
66506;HTU21D;53332;51.082;5.832;2022-07-15T07:31:07;20.55;55.87
66506;HTU21D;53332;51.082;5.832;2022-07-15T07:33:33;20.50;55.42
66506;HTU21D;53332;51.082;5.832;2022-07-15T07:35:58;20.45;55.54
66506;HTU21D;53332;51.082;5.832;2022-07-15T07:38:24;20.45;55.47
66506;HTU21D;53332;51.082;5.832;2022-07-15T07:40:50;20.43;55.02
66506;HTU21D;53332;51.082;5.832;2022-07-15T07:43:17;20.35;54.67
66506;HTU21D;53332;51.082;5.832;2022-07-15T07:45:44;20.31;54.88
66506;HTU21D;53332;51.082;5.832;2022-07-15T07:48:10;20.28;55.14
66506;HTU21D;53332;51.082;5.832;2022-07-15T07:50:35;20.35;55.23
66506;HTU21D;53332;51.082;5.832;2022-07-15T07:53:01;20.43;54.59
66506;HTU21D;53332;51.082;5.832;2022-07-15T07:55:27;20.51;54.19
66506;HTU21D;53332;51.082;5.832;2022-07-15T07:57:55;20.63;53.88
66506;HTU21D;53332;51.082;5.832;2022-07-15T08:00:22;20.68;53.31
66506;HTU21D;53332;51.082;5.832;2022-07-15T08:02:48;20.75;52.95
66506;HTU21D;53332;51.082;5.832;2022-07-15T08:05:16;20.84;52.05
66506;HTU21D;53332;51.082;5.832;2022-07-15T08:07:42;20.90;52.40
66506;HTU21D;53332;51.082;5.832;2022-07-15T08:10:09;20.95;52.65
66506;HTU21D;53332;51.082;5.832;2022-07-15T08:12:37;21.03;53.05
66506;HTU21D;53332;51.082;5.832;2022-07-15T08:15:08;21.16;52.30
66506;HTU21D;53332;51.082;5.832;2022-07-15T08:17:36;21.11;51.95
66506;HTU21D;53332;51.082;5.832;2022-07-15T08:20:06;20.98;52.15
66506;HTU21D;53332;51.082;5.832;2022-07-15T08:22:36;20.84;52.29
66506;HTU21D;53332;51.082;5.832;2022-07-15T08:25:02;20.76;52.48
66506;HTU21D;53332;51.082;5.832;2022-07-15T08:27:28;20.75;52.38
66506;HTU21D;53332;51.082;5.832;2022-07-15T08:29:54;20.90;51.97
66506;HTU21D;53332;51.082;5.832;2022-07-15T08:32:21;21.11;51.24
66506;HTU21D;53332;51.082;5.832;2022-07-15T08:34:47;21.24;50.01
66506;HTU21D;53332;51.082;5.832;2022-07-15T08:37:13;21.34;49.69
66506;HTU21D;53332;51.082;5.832;2022-07-15T08:39:39;21.51;49.00
66506;HTU21D;53332;51.082;5.832;2022-07-15T08:42:06;21.82;48.05
66506;HTU21D;53332;51.082;5.832;2022-07-15T08:44:32;22.10;47.40
66506;HTU21D;53332;51.082;5.832;2022-07-15T08:47:04;22.24;46.43
66506;HTU21D;53332;51.082;5.832;2022-07-15T08:49:32;22.26;46.17
66506;HTU21D;53332;51.082;5.832;2022-07-15T08:52:01;22.16;46.22
66506;HTU21D;53332;51.082;5.832;2022-07-15T08:54:28;22.04;46.72
66506;HTU21D;53332;51.082;5.832;2022-07-15T08:56:54;21.93;46.54
66506;HTU21D;53332;51.082;5.832;2022-07-15T08:59:20;21.78;46.51
66506;HTU21D;53332;51.082;5.832;2022-07-15T09:01:48;21.69;46.53
66506;HTU21D;53332;51.082;5.832;2022-07-15T09:04:15;21.75;46.46
66506;HTU21D;53332;51.082;5.832;2022-07-15T09:06:43;21.90;45.77
66506;HTU21D;53332;51.082;5.832;2022-07-15T09:14:25;22.20;44.11
66506;HTU21D;53332;51.082;5.832;2022-07-15T09:17:05;22.18;44.18
66506;HTU21D;53332;51.082;5.832;2022-07-15T09:20:07;22.22;44.22
66506;HTU21D;53332;51.082;5.832;2022-07-15T09:22:50;22.33;43.93
66506;HTU21D;53332;51.082;5.832;2022-07-15T09:25:16;22.27;43.77
66506;HTU21D;53332;51.082;5.832;2022-07-15T09:27:44;22.13;43.66
66506;HTU21D;53332;51.082;5.832;2022-07-15T09:30:23;22.11;43.44
66506;HTU21D;53332;51.082;5.832;2022-07-15T09:33:15;22.29;43.50
66506;HTU21D;53332;51.082;5.832;2022-07-15T09:36:23;22.63;42.81
66506;HTU21D;53332;51.082;5.832;2022-07-15T09:39:01;22.88;42.23
66506;HTU21D;53332;51.082;5.832;2022-07-15T09:41:38;23.17;42.03
66506;HTU21D;53332;51.082;5.832;2022-07-15T09:44:11;23.49;41.16
66506;HTU21D;53332;51.082;5.832;2022-07-15T09:51:56;24.04;40.01
66506;HTU21D;53332;51.082;5.832;2022-07-15T09:54:24;24.04;40.42
66506;HTU21D;53332;51.082;5.832;2022-07-15T09:56:51;24.04;40.04
66506;HTU21D;53332;51.082;5.832;2022-07-15T09:59:17;23.94;40.53
66506;HTU21D;53332;51.082;5.832;2022-07-15T10:01:44;23.86;41.25
66506;HTU21D;53332;51.082;5.832;2022-07-15T10:04:15;23.72;41.22
66506;HTU21D;53332;51.082;5.832;2022-07-15T10:06:42;23.52;41.23
66506;HTU21D;53332;51.082;5.832;2022-07-15T10:09:08;23.29;41.80
66506;HTU21D;53332;51.082;5.832;2022-07-15T10:11:40;23.17;42.60
66506;HTU21D;53332;51.082;5.832;2022-07-15T10:28:55;23.36;41.01
66506;HTU21D;53332;51.082;5.832;2022-07-15T10:31:28;23.45;40.93
66506;HTU21D;53332;51.082;5.832;2022-07-15T10:39:14;23.38;39.99
66506;HTU21D;53332;51.082;5.832;2022-07-15T10:42:01;23.44;40.40
66506;HTU21D;53332;51.082;5.832;2022-07-15T10:44:35;23.47;40.47
66506;HTU21D;53332;51.082;5.832;2022-07-15T10:49:41;23.68;40.52
66506;HTU21D;53332;51.082;5.832;2022-07-15T10:52:22;23.85;40.55
66506;HTU21D;53332;51.082;5.832;2022-07-15T10:57:21;23.82;39.96
66506;HTU21D;53332;51.082;5.832;2022-07-15T11:05:32;23.49;40.29
66506;HTU21D;53332;51.082;5.832;2022-07-15T11:07:58;23.64;40.57
66506;HTU21D;53332;51.082;5.832;2022-07-15T11:10:24;23.77;40.13
66506;HTU21D;53332;51.082;5.832;2022-07-15T11:15:20;24.14;39.27
66506;HTU21D;53332;51.082;5.832;2022-07-15T11:17:51;24.26;39.23
66506;HTU21D;53332;51.082;5.832;2022-07-15T11:20:21;24.43;38.33
66506;HTU21D;53332;51.082;5.832;2022-07-15T11:22:52;24.49;38.57
66506;HTU21D;53332;51.082;5.832;2022-07-15T11:25:29;24.73;38.14
66506;HTU21D;53332;51.082;5.832;2022-07-15T11:28:14;24.78;37.60
66506;HTU21D;53332;51.082;5.832;2022-07-15T11:30:46;24.57;37.38
66506;HTU21D;53332;51.082;5.832;2022-07-15T11:33:15;24.26;37.75
66506;HTU21D;53332;51.082;5.832;2022-07-15T11:38:12;24.33;37.75
66506;HTU21D;53332;51.082;5.832;2022-07-15T11:40:47;24.40;38.26
66506;HTU21D;53332;51.082;5.832;2022-07-15T11:43:32;24.49;37.86
66506;HTU21D;53332;51.082;5.832;2022-07-15T11:46:18;24.55;37.13
66506;HTU21D;53332;51.082;5.832;2022-07-15T11:48:44;24.65;37.33
66506;HTU21D;53332;51.082;5.832;2022-07-15T11:51:11;24.89;37.32
66506;HTU21D;53332;51.082;5.832;2022-07-15T11:53:42;25.06;36.52
66506;HTU21D;53332;51.082;5.832;2022-07-15T11:56:10;25.10;36.29
66506;HTU21D;53332;51.082;5.832;2022-07-15T12:01:10;24.84;36.45
66506;HTU21D;53332;51.082;5.832;2022-07-15T12:03:45;24.74;36.88
66506;HTU21D;53332;51.082;5.832;2022-07-15T12:11:20;24.60;37.71
66506;HTU21D;53332;51.082;5.832;2022-07-15T12:13:56;24.66;37.33
66506;HTU21D;53332;51.082;5.832;2022-07-15T12:16:43;24.51;37.71
66506;HTU21D;53332;51.082;5.832;2022-07-15T12:21:39;24.38;38.07
66506;HTU21D;53332;51.082;5.832;2022-07-15T12:24:16;24.39;38.01
66506;HTU21D;53332;51.082;5.832;2022-07-15T12:26:56;24.55;38.27
66506;HTU21D;53332;51.082;5.832;2022-07-15T12:29:25;24.82;36.98
66506;HTU21D;53332;51.082;5.832;2022-07-15T12:31:56;25.00;36.54
66506;HTU21D;53332;51.082;5.832;2022-07-15T12:34:52;25.30;36.12
66506;HTU21D;53332;51.082;5.832;2022-07-15T12:40:08;25.73;35.61
66506;HTU21D;53332;51.082;5.832;2022-07-15T12:42:43;25.92;35.05
66506;HTU21D;53332;51.082;5.832;2022-07-15T12:45:16;25.99;34.63
66506;HTU21D;53332;51.082;5.832;2022-07-15T12:50:57;25.86;34.54
66506;HTU21D;53332;51.082;5.832;2022-07-15T12:53:27;25.58;34.72
66506;HTU21D;53332;51.082;5.832;2022-07-15T12:56:02;25.29;35.31
66506;HTU21D;53332;51.082;5.832;2022-07-15T12:58:30;25.23;35.80
66506;HTU21D;53332;51.082;5.832;2022-07-15T13:01:09;25.18;35.72
66506;HTU21D;53332;51.082;5.832;2022-07-15T13:03:35;25.20;35.76
66506;HTU21D;53332;51.082;5.832;2022-07-15T13:06:01;25.50;35.45
66506;HTU21D;53332;51.082;5.832;2022-07-15T13:08:29;25.61;34.71
66506;HTU21D;53332;51.082;5.832;2022-07-15T13:10:58;25.62;34.42
66506;HTU21D;53332;51.082;5.832;2022-07-15T13:13:28;25.61;34.31
66506;HTU21D;53332;51.082;5.832;2022-07-15T13:15:54;25.61;34.49
66506;HTU21D;53332;51.082;5.832;2022-07-15T13:18:20;25.63;34.20
66506;HTU21D;53332;51.082;5.832;2022-07-15T13:20:46;25.72;33.97
66506;HTU21D;53332;51.082;5.832;2022-07-15T13:23:12;25.78;33.99
66506;HTU21D;53332;51.082;5.832;2022-07-15T13:25:38;25.95;33.93
66506;HTU21D;53332;51.082;5.832;2022-07-15T13:28:07;26.01;33.56
66506;HTU21D;53332;51.082;5.832;2022-07-15T13:30:34;26.08;33.90
66506;HTU21D;53332;51.082;5.832;2022-07-15T13:33:00;26.24;33.70
66506;HTU21D;53332;51.082;5.832;2022-07-15T13:35:26;26.31;33.31
66506;HTU21D;53332;51.082;5.832;2022-07-15T13:37:52;26.41;33.38
66506;HTU21D;53332;51.082;5.832;2022-07-15T13:40:18;26.61;32.90
66506;HTU21D;53332;51.082;5.832;2022-07-15T13:42:44;26.78;31.55
66506;HTU21D;53332;51.082;5.832;2022-07-15T13:45:11;26.82;31.12
66506;HTU21D;53332;51.082;5.832;2022-07-15T13:47:37;26.63;31.63
66506;HTU21D;53332;51.082;5.832;2022-07-15T13:50:04;26.54;32.13
66506;HTU21D;53332;51.082;5.832;2022-07-15T13:52:51;26.52;32.41
66506;HTU21D;53332;51.082;5.832;2022-07-15T13:55:19;26.75;32.18
66506;HTU21D;53332;51.082;5.832;2022-07-15T13:57:45;26.71;31.39
66506;HTU21D;53332;51.082;5.832;2022-07-15T14:00:14;26.58;31.73
66506;HTU21D;53332;51.082;5.832;2022-07-15T14:02:42;26.47;31.67
66506;HTU21D;53332;51.082;5.832;2022-07-15T14:05:10;26.33;31.99
66506;HTU21D;53332;51.082;5.832;2022-07-15T14:07:36;26.34;32.64
66506;HTU21D;53332;51.082;5.832;2022-07-15T14:10:03;26.46;32.64
66506;HTU21D;53332;51.082;5.832;2022-07-15T14:12:29;26.55;32.32
66506;HTU21D;53332;51.082;5.832;2022-07-15T14:14:55;26.71;31.96
66506;HTU21D;53332;51.082;5.832;2022-07-15T14:17:20;26.86;31.73
66506;HTU21D;53332;51.082;5.832;2022-07-15T14:19:46;26.83;31.57
66506;HTU21D;53332;51.082;5.832;2022-07-15T14:22:12;26.64;31.40
66506;HTU21D;53332;51.082;5.832;2022-07-15T14:24:37;26.45;32.40
66506;HTU21D;53332;51.082;5.832;2022-07-15T14:27:03;26.49;32.69
66506;HTU21D;53332;51.082;5.832;2022-07-15T14:29:29;26.57;32.15
66506;HTU21D;53332;51.082;5.832;2022-07-15T14:31:55;26.67;31.67
66506;HTU21D;53332;51.082;5.832;2022-07-15T14:34:20;26.69;31.18
66506;HTU21D;53332;51.082;5.832;2022-07-15T14:36:46;26.73;31.33
66506;HTU21D;53332;51.082;5.832;2022-07-15T14:39:11;26.65;31.24
66506;HTU21D;53332;51.082;5.832;2022-07-15T14:41:37;26.67;31.70
66506;HTU21D;53332;51.082;5.832;2022-07-15T14:44:03;26.89;32.27
66506;HTU21D;53332;51.082;5.832;2022-07-15T14:46:29;27.01;31.99
66506;HTU21D;53332;51.082;5.832;2022-07-15T14:48:54;26.96;31.41
66506;HTU21D;53332;51.082;5.832;2022-07-15T14:51:20;26.86;31.22
66506;HTU21D;53332;51.082;5.832;2022-07-15T14:53:46;27.06;31.05
66506;HTU21D;53332;51.082;5.832;2022-07-15T14:56:11;27.41;30.70
66506;HTU21D;53332;51.082;5.832;2022-07-15T14:58:37;27.51;30.33
66506;HTU21D;53332;51.082;5.832;2022-07-15T15:01:03;27.45;30.98
66506;HTU21D;53332;51.082;5.832;2022-07-15T15:03:29;27.41;31.52
66506;HTU21D;53332;51.082;5.832;2022-07-15T15:05:55;27.49;31.54
66506;HTU21D;53332;51.082;5.832;2022-07-15T15:08:22;27.51;31.22
66506;HTU21D;53332;51.082;5.832;2022-07-15T15:10:48;27.28;31.38
66506;HTU21D;53332;51.082;5.832;2022-07-15T15:13:13;26.96;31.70
66506;HTU21D;53332;51.082;5.832;2022-07-15T15:15:39;26.57;32.23
66506;HTU21D;53332;51.082;5.832;2022-07-15T15:18:05;26.27;32.77
66506;HTU21D;53332;51.082;5.832;2022-07-15T15:20:30;26.07;32.83
66506;HTU21D;53332;51.082;5.832;2022-07-15T15:22:56;25.96;33.17
66506;HTU21D;53332;51.082;5.832;2022-07-15T15:25:21;25.87;33.65
66506;HTU21D;53332;51.082;5.832;2022-07-15T15:28:05;25.74;33.47
66506;HTU21D;53332;51.082;5.832;2022-07-15T15:30:32;25.60;33.47
66506;HTU21D;53332;51.082;5.832;2022-07-15T15:32:58;25.61;33.87
66506;HTU21D;53332;51.082;5.832;2022-07-15T15:35:23;25.66;34.18
66506;HTU21D;53332;51.082;5.832;2022-07-15T15:37:49;25.66;34.14
66506;HTU21D;53332;51.082;5.832;2022-07-15T15:40:15;25.57;34.28
66506;HTU21D;53332;51.082;5.832;2022-07-15T15:42:41;25.38;34.63
66506;HTU21D;53332;51.082;5.832;2022-07-15T15:45:07;25.22;34.63
66506;HTU21D;53332;51.082;5.832;2022-07-15T15:47:33;25.01;34.78
66506;HTU21D;53332;51.082;5.832;2022-07-15T15:49:59;25.00;35.37
66506;HTU21D;53332;51.082;5.832;2022-07-15T15:52:25;25.04;35.01
66506;HTU21D;53332;51.082;5.832;2022-07-15T15:54:50;25.07;35.05
66506;HTU21D;53332;51.082;5.832;2022-07-15T15:57:16;25.21;34.73
66506;HTU21D;53332;51.082;5.832;2022-07-15T15:59:41;25.37;35.12
66506;HTU21D;53332;51.082;5.832;2022-07-15T16:02:07;25.48;34.73
66506;HTU21D;53332;51.082;5.832;2022-07-15T16:04:32;25.56;34.76
66506;HTU21D;53332;51.082;5.832;2022-07-15T16:06:58;25.58;34.59
66506;HTU21D;53332;51.082;5.832;2022-07-15T16:09:23;25.46;34.34
66506;HTU21D;53332;51.082;5.832;2022-07-15T16:11:49;25.35;34.31
66506;HTU21D;53332;51.082;5.832;2022-07-15T16:14:14;25.31;34.47
66506;HTU21D;53332;51.082;5.832;2022-07-15T16:16:40;25.24;34.50
66506;HTU21D;53332;51.082;5.832;2022-07-15T16:19:06;25.19;34.96
66506;HTU21D;53332;51.082;5.832;2022-07-15T16:21:32;25.21;35.69